Time;durP1;ratioP1;P1;durP2;ratioP2;P2;SDS_P1;SDS_P2;PMS_P1;PMS_P2;Temp;Humidity;BMP_temperature;BMP_pressure;BME280_temperature;BME280_humidity;BME280_pressure;Samples;Min_cycle;Max_cycle;Signal;HPM_P1;HPM_P2
2021/06/29 00:01:50;;;;;;;;;7.00;7.00;;;;;;;;3559425;39;111966;-79
2021/06/29 00:04:18;;;;;;;;;8.00;8.00;;;;;;;;3561906;39;113358;-79
2021/06/29 00:06:44;;;;;;;;;9.00;9.00;;;;;;;;3559162;39;111912;-80
2021/06/29 00:09:11;;;;;;;;;8.00;8.00;;;;;;;;3559895;39;113792;-80
2021/06/29 00:11:37;;;;;;;;;8.00;8.00;;;;;;;;3560340;39;114240;-80
2021/06/29 00:14:04;;;;;;;;;7.33;7.33;;;;;;;;3558571;39;111711;-81
2021/06/29 00:16:31;;;;;;;;;7.00;7.00;;;;;;;;3560088;39;113318;-81
2021/06/29 00:18:57;;;;;;;;;8.00;6.67;;;;;;;;3558694;39;113889;-80
2021/06/29 00:21:25;;;;;;;;;8.33;8.00;;;;;;;;3559540;39;111888;-81
2021/06/29 00:23:52;;;;;;;;;10.00;7.00;;;;;;;;3559198;39;113263;-80
2021/06/29 00:26:18;;;;;;;;;10.67;9.00;;;;;;;;3560559;39;114320;-79
2021/06/29 00:28:45;;;;;;;;;10.00;8.67;;;;;;;;3559053;39;113603;-80
2021/06/29 00:31:11;;;;;;;;;7.00;6.00;;;;;;;;3559457;39;114217;-80
2021/06/29 00:33:38;;;;;;;;;7.33;7.33;;;;;;;;3560886;39;111996;-80
2021/06/29 00:36:05;;;;;;;;;9.00;9.00;;;;;;;;3558436;39;113419;-79
2021/06/29 00:38:33;;;;;;;;;8.00;8.00;;;;;;;;3559827;39;114295;-80
2021/06/29 00:40:59;;;;;;;;;8.00;8.00;;;;;;;;3558803;39;111949;-79
2021/06/29 00:43:26;;;;;;;;;10.67;9.00;;;;;;;;3559649;39;113487;-79
2021/06/29 00:45:52;;;;;;;;;12.00;7.67;;;;;;;;3558775;39;113773;-79
2021/06/29 00:48:19;;;;;;;;;8.00;8.00;;;;;;;;3562261;39;111704;-80
2021/06/29 00:50:46;;;;;;;;;7.00;6.33;;;;;;;;3559273;39;113936;-79
2021/06/29 00:53:13;;;;;;;;;7.67;7.00;;;;;;;;3560670;39;111977;-80
2021/06/29 00:55:41;;;;;;;;;8.00;8.00;;;;;;;;3558568;39;113600;-80
2021/06/29 00:58:08;;;;;;;;;8.00;8.00;;;;;;;;3559482;39;113980;-80
2021/06/29 01:00:35;;;;;;;;;8.33;8.00;;;;;;;;3558502;39;112655;-80
2021/06/29 01:03:02;;;;;;;;;8.00;8.00;;;;;;;;3558204;39;113884;-80
2021/06/29 01:05:28;;;;;;;;;8.00;8.00;;;;;;;;3559464;39;114341;-80
2021/06/29 01:07:55;;;;;;;;;8.00;8.00;;;;;;;;3561614;39;112144;-79
2021/06/29 01:10:22;;;;;;;;;8.00;7.33;;;;;;;;3559078;39;113923;-80
2021/06/29 01:12:50;;;;;;;;;5.33;5.33;;;;;;;;3559820;39;111708;-79
2021/06/29 01:15:22;;;;;;;;;7.00;6.00;;;;;;;;3559578;39;113761;-80
2021/06/29 01:17:49;;;;;;;;;7.00;7.00;;;;;;;;3559333;39;114157;-79
2021/06/29 01:20:22;;;;;;;;;9.33;7.33;;;;;;;;3559876;39;112026;-80
2021/06/29 01:22:52;;;;;;;;;6.00;6.00;;;;;;;;3560415;39;113575;-80
2021/06/29 01:25:18;;;;;;;;;8.33;6.33;;;;;;;;3559802;39;114455;-81
2021/06/29 01:27:54;;;;;;;;;6.67;6.67;;;;;;;;3560433;39;112303;-81
2021/06/29 01:33:04;;;;;;;;;7.00;7.00;;;;;;;;3558388;39;112504;-80
2021/06/29 01:35:33;;;;;;;;;8.00;6.33;;;;;;;;3558314;39;113206;-81
2021/06/29 01:38:00;;;;;;;;;7.00;6.00;;;;;;;;3559410;39;113890;-80
2021/06/29 01:40:29;;;;;;;;;7.00;7.00;;;;;;;;3558408;39;112752;-82
2021/06/29 01:42:58;;;;;;;;;6.33;6.00;;;;;;;;3559644;39;113226;-81
2021/06/29 01:45:27;;;;;;;;;8.00;8.00;;;;;;;;3557242;39;113841;-80
2021/06/29 01:48:00;;;;;;;;;7.00;6.67;;;;;;;;3559654;39;111950;-80
2021/06/29 01:50:27;;;;;;;;;7.00;6.00;;;;;;;;3558634;39;113453;-78
2021/06/29 01:52:59;;;;;;;;;7.00;7.00;;;;;;;;3561549;39;114583;-82
2021/06/29 01:55:26;;;;;;;;;9.00;8.33;;;;;;;;3558720;39;113360;-80
2021/06/29 01:57:53;;;;;;;;;8.00;8.00;;;;;;;;3559087;39;113891;-80
2021/06/29 02:00:20;;;;;;;;;6.75;6.75;;;;;;;;3558775;39;112590;-81
2021/06/29 02:02:47;;;;;;;;;9.00;8.75;;;;;;;;3559004;39;113242;-81
2021/06/29 02:05:14;;;;;;;;;7.75;7.75;;;;;;;;3558806;39;113758;-81
2021/06/29 02:07:41;;;;;;;;;8.50;8.00;;;;;;;;3558305;39;112337;-80
2021/06/29 02:10:10;;;;;;;;;7.00;7.00;;;;;;;;3559637;39;113231;-79
2021/06/29 02:12:37;;;;;;;;;10.75;9.75;;;;;;;;3557653;39;114030;-78
2021/06/29 02:15:04;;;;;;;;;9.50;9.00;;;;;;;;3562379;39;111802;-78
2021/06/29 02:17:31;;;;;;;;;8.00;8.00;;;;;;;;3557530;39;114838;-78
2021/06/29 02:19:57;;;;;;;;;8.00;8.00;;;;;;;;3559614;39;113053;-78
2021/06/29 02:22:24;;;;;;;;;8.75;8.75;;;;;;;;3557988;39;113260;-78
2021/06/29 02:24:50;;;;;;;;;9.50;8.50;;;;;;;;3558721;39;114019;-78
2021/06/29 02:27:18;;;;;;;;;8.00;8.00;;;;;;;;3558547;39;111783;-78
2021/06/29 02:29:45;;;;;;;;;8.25;8.25;;;;;;;;3558540;39;113053;-78
2021/06/29 02:32:11;;;;;;;;;9.00;9.00;;;;;;;;3556924;39;114574;-78
2021/06/29 02:34:38;;;;;;;;;8.00;8.00;;;;;;;;3559257;39;111754;-78
2021/06/29 02:37:05;;;;;;;;;8.00;8.00;;;;;;;;3560181;39;113345;-79
2021/06/29 02:39:31;;;;;;;;;6.50;6.50;;;;;;;;3557806;39;111995;-81
2021/06/29 02:41:58;;;;;;;;;8.25;8.25;;;;;;;;3559128;39;113530;-79
2021/06/29 02:44:27;;;;;;;;;7.50;7.50;;;;;;;;3557712;39;113790;-78
2021/06/29 02:46:53;;;;;;;;;8.75;8.75;;;;;;;;3558778;39;111914;-77
2021/06/29 02:49:20;;;;;;;;;8.75;8.75;;;;;;;;3558239;39;114051;-78
2021/06/29 02:51:46;;;;;;;;;10.50;9.00;;;;;;;;3558225;39;113925;-78
2021/06/29 02:54:13;;;;;;;;;8.00;8.00;;;;;;;;3558719;39;112125;-78
2021/06/29 02:56:40;;;;;;;;;8.00;8.00;;;;;;;;3557726;39;113321;-79
2021/06/29 02:59:07;;;;;;;;;9.00;8.75;;;;;;;;3562139;39;113949;-79
2021/06/29 03:01:35;;;;;;;;;8.00;8.00;;;;;;;;3558839;39;113606;-79
2021/06/29 03:04:01;;;;;;;;;7.75;7.75;;;;;;;;3559905;39;113896;-80
2021/06/29 03:06:28;;;;;;;;;7.75;7.75;;;;;;;;3559193;39;112151;-80
2021/06/29 03:08:54;;;;;;;;;8.75;8.75;;;;;;;;3559939;39;113339;-80
2021/06/29 03:11:21;;;;;;;;;10.00;9.50;;;;;;;;3559061;39;113914;-80
2021/06/29 03:13:47;;;;;;;;;9.00;8.25;;;;;;;;3559614;39;112187;-80
2021/06/29 03:16:14;;;;;;;;;7.00;7.00;;;;;;;;3560114;39;113310;-80
2021/06/29 03:18:42;;;;;;;;;6.75;6.75;;;;;;;;3561547;39;113878;-80
2021/06/29 03:21:09;;;;;;;;;9.00;9.00;;;;;;;;3558400;39;113271;-80
2021/06/29 03:23:35;;;;;;;;;8.25;7.00;;;;;;;;3560139;39;114446;-80
2021/06/29 03:26:02;;;;;;;;;9.25;9.25;;;;;;;;3558991;39;112157;-80
2021/06/29 03:28:28;;;;;;;;;6.50;6.50;;;;;;;;3560528;39;113312;-82
2021/06/29 03:30:55;;;;;;;;;10.25;9.00;;;;;;;;3559115;39;113977;-81
2021/06/29 03:33:21;;;;;;;;;8.00;8.00;;;;;;;;3560044;39;112018;-82
2021/06/29 03:35:49;;;;;;;;;10.00;9.00;;;;;;;;3559903;39;113539;-81
2021/06/29 03:38:16;;;;;;;;;10.25;8.50;;;;;;;;3558961;39;113656;-79
2021/06/29 03:40:43;;;;;;;;;6.25;5.25;;;;;;;;3562923;39;112233;-80
2021/06/29 03:43:10;;;;;;;;;10.50;9.50;;;;;;;;3558568;39;113739;-79
2021/06/29 03:45:37;;;;;;;;;7.00;7.00;;;;;;;;3560671;39;112590;-76
2021/06/29 03:48:04;;;;;;;;;7.50;6.25;;;;;;;;3560548;39;113342;-77
2021/06/29 03:50:30;;;;;;;;;8.00;8.00;;;;;;;;3560800;39;114013;-79
2021/06/29 03:52:58;;;;;;;;;10.50;8.75;;;;;;;;3559269;39;111944;-82
2021/06/29 03:55:25;;;;;;;;;8.00;7.00;;;;;;;;3559760;39;113939;-81
2021/06/29 03:57:51;;;;;;;;;8.00;8.00;;;;;;;;3559363;39;113914;-80
2021/06/29 04:00:18;;;;;;;;;8.25;8.25;;;;;;;;3557851;39;112576;-80
2021/06/29 04:02:45;;;;;;;;;10.00;7.00;;;;;;;;3560828;39;113438;-78
2021/06/29 04:05:16;;;;;;;;;7.00;7.00;;;;;;;;3558943;39;113006;-81
2021/06/29 04:07:43;;;;;;;;;8.00;8.00;;;;;;;;3558575;39;113742;-79
2021/06/29 04:10:11;;;;;;;;;7.75;7.75;;;;;;;;3557851;39;113910;-80
2021/06/29 04:12:38;;;;;;;;;6.00;6.00;;;;;;;;3559507;39;112058;-81
2021/06/29 04:15:05;;;;;;;;;9.00;7.75;;;;;;;;3558772;39;113788;-78
2021/06/29 04:17:32;;;;;;;;;8.75;7.75;;;;;;;;3557350;39;114967;-77
2021/06/29 04:19:58;;;;;;;;;8.25;8.00;;;;;;;;3558562;39;112108;-78
2021/06/29 04:22:25;;;;;;;;;8.25;8.25;;;;;;;;3557927;39;113725;-78
2021/06/29 04:24:52;;;;;;;;;8.50;8.25;;;;;;;;3561258;39;114374;-82
2021/06/29 04:27:22;;;;;;;;;9.00;7.25;;;;;;;;3557852;39;113442;-79
2021/06/29 04:29:48;;;;;;;;;8.50;7.50;;;;;;;;3558475;39;113822;-77
2021/06/29 04:32:15;;;;;;;;;11.75;9.50;;;;;;;;3558483;39;112009;-77
2021/06/29 04:34:42;;;;;;;;;9.00;7.75;;;;;;;;3559177;39;113250;-78
2021/06/29 04:37:08;;;;;;;;;8.00;8.00;;;;;;;;3559833;39;114070;-77
2021/06/29 04:39:35;;;;;;;;;8.75;8.75;;;;;;;;3558649;39;112574;-77
2021/06/29 04:42:02;;;;;;;;;12.25;11.00;;;;;;;;3558362;39;113289;-77
2021/06/29 04:44:30;;;;;;;;;11.00;9.00;;;;;;;;3558176;39;113889;-76
2021/06/29 04:46:57;;;;;;;;;9.00;9.00;;;;;;;;3562837;39;112011;-75
2021/06/29 04:49:26;;;;;;;;;7.75;7.75;;;;;;;;3558607;39;113963;-76
2021/06/29 04:51:53;;;;;;;;;11.00;11.00;;;;;;;;3559265;39;112206;-77
2021/06/29 04:54:20;;;;;;;;;9.75;9.00;;;;;;;;3559286;39;113367;-76
2021/06/29 04:56:46;;;;;;;;;7.75;7.75;;;;;;;;3558732;39;113394;-73
2021/06/29 04:59:13;;;;;;;;;10.00;8.75;;;;;;;;3559674;39;112361;-75
2021/06/29 05:01:41;;;;;;;;;8.25;7.75;;;;;;;;3558881;39;113305;-78
2021/06/29 05:04:07;;;;;;;;;9.75;8.75;;;;;;;;3559452;39;114184;-76
2021/06/29 05:06:34;;;;;;;;;9.25;7.00;;;;;;;;3560871;39;112013;-76
2021/06/29 05:09:01;;;;;;;;;11.00;10.00;;;;;;;;3559735;39;113353;-76
2021/06/29 05:11:30;;;;;;;;;9.00;8.00;;;;;;;;3557969;39;111928;-75
2021/06/29 05:13:57;;;;;;;;;10.50;10.50;;;;;;;;3559866;39;113620;-74
2021/06/29 05:16:23;;;;;;;;;9.00;8.25;;;;;;;;3557710;39;114509;-75
2021/06/29 05:18:51;;;;;;;;;8.50;8.50;;;;;;;;3559541;39;112174;-77
2021/06/29 05:21:18;;;;;;;;;8.50;8.50;;;;;;;;3557317;39;113414;-78
2021/06/29 05:23:44;;;;;;;;;11.00;10.00;;;;;;;;3556710;39;113792;-80
2021/06/29 05:26:11;;;;;;;;;8.00;5.50;;;;;;;;3559006;39;111977;-77
2021/06/29 05:28:38;;;;;;;;;9.00;9.00;;;;;;;;3559635;39;112851;-78
2021/06/29 05:31:04;;;;;;;;;10.00;10.00;;;;;;;;3559288;39;111802;-77
2021/06/29 05:33:31;;;;;;;;;10.00;8.00;;;;;;;;3633239;22;114922;-75
2021/06/29 05:35:59;;;;;;;;;10.25;10.25;;;;;;;;3563561;39;113854;-73
2021/06/29 05:38:25;;;;;;;;;8.00;8.00;;;;;;;;3563985;39;111905;-74
2021/06/29 05:40:52;;;;;;;;;11.50;10.00;;;;;;;;3563201;39;112741;-74
2021/06/29 05:43:18;;;;;;;;;11.00;10.75;;;;;;;;3563606;39;113882;-74
2021/06/29 05:45:45;;;;;;;;;12.75;11.75;;;;;;;;3564664;39;111975;-79
2021/06/29 05:48:14;;;;;;;;;11.25;10.00;;;;;;;;3564439;39;113804;-82
2021/06/29 05:50:41;;;;;;;;;13.00;11.00;;;;;;;;3566971;39;112844;-81
2021/06/29 05:53:09;;;;;;;;;11.25;11.25;;;;;;;;3564415;39;114312;-82
2021/06/29 05:55:35;;;;;;;;;12.00;10.25;;;;;;;;3563987;39;113809;-78
2021/06/29 05:58:02;;;;;;;;;10.00;9.25;;;;;;;;3563558;39;112518;-85
2021/06/29 06:00:28;;;;;;;;;14.50;11.25;;;;;;;;3564056;39;113633;-69
2021/06/29 06:02:55;;;;;;;;;10.00;10.00;;;;;;;;3563945;39;113927;-77
2021/06/29 06:05:22;;;;;;;;;11.00;9.50;;;;;;;;3564124;39;111828;-77
2021/06/29 06:07:48;;;;;;;;;14.00;13.50;;;;;;;;3564513;39;113449;-77
2021/06/29 06:10:16;;;;;;;;;12.00;10.50;;;;;;;;3563524;39;113909;-75
2021/06/29 06:12:43;;;;;;;;;11.25;11.00;;;;;;;;3567019;39;111832;-77
2021/06/29 06:15:09;;;;;;;;;9.00;9.00;;;;;;;;3563421;39;113849;-77
2021/06/29 06:17:37;;;;;;;;;10.75;9.00;;;;;;;;3564375;39;111875;-75
2021/06/29 06:20:05;;;;;;;;;10.00;9.00;;;;;;;;3561861;39;113476;-76
2021/06/29 06:22:32;;;;;;;;;10.75;10.00;;;;;;;;3559562;39;114235;-72
2021/06/29 06:24:59;;;;;;;;;9.75;9.00;;;;;;;;3558480;39;112703;-76
2021/06/29 06:27:27;;;;;;;;;7.00;7.00;;;;;;;;3562599;39;114310;-74
2021/06/29 06:29:53;;;;;;;;;9.50;8.00;;;;;;;;3562971;39;114703;-75
2021/06/29 06:32:20;;;;;;;;;9.75;9.75;;;;;;;;3563455;39;111907;-76
2021/06/29 06:34:47;;;;;;;;;10.00;8.00;;;;;;;;3564349;39;113804;-77
2021/06/29 06:37:13;;;;;;;;;13.25;13.25;;;;;;;;3564960;39;113297;-78
2021/06/29 06:39:40;;;;;;;;;9.50;8.50;;;;;;;;3565121;39;114276;-77
2021/06/29 06:42:07;;;;;;;;;11.25;10.00;;;;;;;;3564322;39;114050;-73
2021/06/29 06:44:35;;;;;;;;;8.75;8.75;;;;;;;;3562877;39;111972;-77
2021/06/29 06:47:01;;;;;;;;;11.25;11.25;;;;;;;;3564965;39;113326;-75
2021/06/29 06:49:28;;;;;;;;;10.50;9.75;;;;;;;;3564343;39;114642;-75
2021/06/29 06:51:55;;;;;;;;;12.00;11.00;;;;;;;;3564905;39;111852;-74
2021/06/29 06:54:21;;;;;;;;;13.00;11.75;;;;;;;;3565114;39;113316;-76
2021/06/29 06:56:48;;;;;;;;;9.00;9.00;;;;;;;;3567304;39;114047;-75
2021/06/29 06:59:14;;;;;;;;;9.00;9.00;;;;;;;;3565124;39;113316;-75
2021/06/29 07:01:44;;;;;;;;;10.00;8.00;;;;;;;;3564392;39;114045;-74
2021/06/29 07:04:11;;;;;;;;;8.75;8.75;;;;;;;;3565191;39;111943;-76
2021/06/29 07:06:38;;;;;;;;;9.25;9.25;;;;;;;;3564878;39;114279;-75
2021/06/29 07:09:05;;;;;;;;;9.75;9.75;;;;;;;;3564627;39;113894;-76
2021/06/29 07:11:31;;;;;;;;;9.67;8.00;;;;;;;;3565547;39;111890;-76
2021/06/29 07:13:58;;;;;;;;;9.67;9.67;;;;;;;;3564656;39;113914;-71
2021/06/29 07:16:26;;;;;;;;;9.67;9.33;;;;;;;;3564287;39;113953;-72
2021/06/29 07:18:54;;;;;;;;;9.00;9.00;;;;;;;;3567821;39;111966;-72
2021/06/29 07:21:26;;;;;;;;;13.00;11.00;;;;;;;;3560791;39;113670;-71
2021/06/29 07:23:52;;;;;;;;;22.25;20.50;;;;;;;;3564556;39;111740;-71
2021/06/29 07:26:19;;;;;;;;;10.25;9.25;;;;;;;;3564555;39;113536;-72
2021/06/29 07:28:45;;;;;;;;;14.75;12.50;;;;;;;;3564009;39;113916;-69
2021/06/29 07:31:13;;;;;;;;;11.33;11.00;;;;;;;;3562527;39;112868;-71
2021/06/29 07:33:39;;;;;;;;;11.67;9.67;;;;;;;;3563271;39;113634;-72
2021/06/29 07:36:09;;;;;;;;;10.67;9.67;;;;;;;;3563581;39;114327;-74
2021/06/29 07:38:36;;;;;;;;;20.00;19.00;;;;;;;;3565457;39;112578;-72
2021/06/29 07:41:02;;;;;;;;;9.00;9.00;;;;;;;;3562302;39;114225;-74
2021/06/29 07:43:29;;;;;;;;;9.33;9.00;;;;;;;;3564525;39;112154;-78
2021/06/29 07:45:56;;;;;;;;;10.33;10.00;;;;;;;;3565049;39;113436;-77
2021/06/29 07:48:22;;;;;;;;;10.33;10.00;;;;;;;;3564779;39;113887;-78
2021/06/29 07:50:49;;;;;;;;;9.67;9.00;;;;;;;;3565202;39;112115;-77
2021/06/29 07:53:17;;;;;;;;;10.67;8.67;;;;;;;;3564688;39;113261;-77
2021/06/29 07:55:44;;;;;;;;;9.67;8.67;;;;;;;;3564433;39;113984;-77
2021/06/29 07:58:11;;;;;;;;;11.00;9.33;;;;;;;;3564591;39;112207;-77
2021/06/29 08:00:37;;;;;;;;;8.00;7.33;;;;;;;;3567287;39;113648;-76
2021/06/29 08:03:04;;;;;;;;;9.00;8.00;;;;;;;;3563635;39;112375;-76
2021/06/29 08:05:30;;;;;;;;;8.00;8.00;;;;;;;;3564287;39;113274;-76
2021/06/29 08:07:57;;;;;;;;;10.00;8.00;;;;;;;;3564179;39;114545;-76
2021/06/29 08:10:25;;;;;;;;;8.00;8.00;;;;;;;;3565025;39;112243;-77
2021/06/29 08:12:53;;;;;;;;;8.33;7.33;;;;;;;;3565185;39;113329;-76
2021/06/29 08:15:20;;;;;;;;;6.67;6.67;;;;;;;;3564647;39;114202;-76
2021/06/29 08:17:47;;;;;;;;;7.00;7.00;;;;;;;;3565438;39;111950;-76
2021/06/29 08:20:15;;;;;;;;;8.67;8.00;;;;;;;;3564550;39;113324;-77
2021/06/29 08:22:41;;;;;;;;;6.33;6.00;;;;;;;;3567337;39;113912;-77
2021/06/29 08:25:09;;;;;;;;;7.00;7.00;;;;;;;;3564669;39;113216;-77
2021/06/29 08:27:37;;;;;;;;;6.00;6.00;;;;;;;;3565281;39;113760;-77
2021/06/29 08:30:04;;;;;;;;;7.00;7.00;;;;;;;;3563079;39;112177;-78
2021/06/29 08:32:31;;;;;;;;;8.33;8.33;;;;;;;;3563236;39;113296;-76
2021/06/29 08:34:57;;;;;;;;;6.33;6.00;;;;;;;;3564336;39;113892;-78
2021/06/29 08:37:24;;;;;;;;;5.33;5.33;;;;;;;;3565177;39;111949;-77
2021/06/29 08:39:52;;;;;;;;;9.00;8.00;;;;;;;;3563257;39;114102;-77
2021/06/29 08:42:19;;;;;;;;;7.00;6.67;;;;;;;;3564374;39;113827;-77
2021/06/29 08:44:47;;;;;;;;;7.67;7.00;;;;;;;;3567202;39;112480;-77
2021/06/29 08:47:13;;;;;;;;;8.67;7.00;;;;;;;;3563157;39;114310;-76
2021/06/29 08:49:40;;;;;;;;;4.00;4.00;;;;;;;;3564814;39;112035;-76
2021/06/29 08:52:07;;;;;;;;;5.50;5.50;;;;;;;;3564563;39;113335;-76
2021/06/29 08:54:34;;;;;;;;;7.00;6.67;;;;;;;;3564334;39;113990;-76
2021/06/29 08:57:02;;;;;;;;;8.33;6.00;;;;;;;;3564105;39;112543;-76
2021/06/29 08:59:28;;;;;;;;;5.00;5.00;;;;;;;;3565079;39;113361;-76
2021/06/29 09:01:56;;;;;;;;;6.00;6.00;;;;;;;;3564228;39;114478;-78
2021/06/29 09:04:42;;;;;;;;;5.00;5.00;;;;;;;;3565385;39;112729;-78
2021/06/29 09:07:15;;;;;;;;;7.00;7.00;;;;;;;;3565753;39;113550;-78
2021/06/29 09:09:46;;;;;;;;;5.25;5.00;;;;;;;;3564924;39;111903;-77
2021/06/29 09:12:13;;;;;;;;;5.75;5.00;;;;;;;;3565239;39;113233;-77
2021/06/29 09:14:40;;;;;;;;;7.50;7.00;;;;;;;;3564565;39;114184;-77
2021/06/29 09:17:20;;;;;;;;;5.75;5.75;;;;;;;;3564640;39;112185;-77
2021/06/29 09:19:47;;;;;;;;;7.00;6.00;;;;;;;;3564943;39;113269;-78
2021/06/29 09:22:29;;;;;;;;;7.00;7.00;;;;;;;;3564495;39;114407;-77
2021/06/29 09:24:57;;;;;;;;;7.75;6.75;;;;;;;;3564650;39;111974;-78
2021/06/29 09:27:40;;;;;;;;;9.00;8.00;;;;;;;;3564546;39;112914;-76
2021/06/29 09:30:27;;;;;;;;;6.00;6.00;;;;;;;;3566572;39;111996;-77
2021/06/29 09:32:58;;;;;;;;;9.25;7.00;;;;;;;;3564283;39;113730;-78
2021/06/29 09:35:25;;;;;;;;;5.75;5.75;;;;;;;;3564075;39;114234;-77
2021/06/29 09:37:52;;;;;;;;;11.25;11.25;;;;;;;;3564494;39;112213;-78
2021/06/29 09:40:19;;;;;;;;;8.25;7.00;;;;;;;;3564490;39;113608;-78
2021/06/29 09:42:45;;;;;;;;;7.00;7.00;;;;;;;;3563882;39;114061;-77
2021/06/29 09:45:27;;;;;;;;;7.33;7.33;;;;;;;;3564044;39;111894;-75
2021/06/29 09:47:55;;;;;;;;;6.33;5.33;;;;;;;;3563999;39;113208;-76
2021/06/29 09:50:36;;;;;;;;;8.00;6.00;;;;;;;;3566675;39;113927;-78
2021/06/29 09:53:11;;;;;;;;;27.00;25.33;;;;;;;;3562302;39;113336;-77
2021/06/29 09:55:43;;;;;;;;;10.00;10.00;;;;;;;;3562262;39;113964;-76
2021/06/29 09:58:11;;;;;;;;;9.00;8.33;;;;;;;;3562908;39;112399;-77
2021/06/29 10:00:42;;;;;;;;;21.00;20.33;;;;;;;;3563480;39;114007;-76
2021/06/29 10:03:24;;;;;;;;;13.33;12.00;;;;;;;;3563347;39;113991;-77
2021/06/29 10:05:52;;;;;;;;;8.67;8.33;;;;;;;;3564025;39;112258;-76
2021/06/29 10:08:25;;;;;;;;;11.00;7.00;;;;;;;;3563790;39;113608;-79
2021/06/29 10:11:03;;;;;;;;;11.67;11.00;;;;;;;;3563906;39;113898;-80
2021/06/29 10:13:32;;;;;;;;;11.00;11.00;;;;;;;;3564618;39;113604;-81
2021/06/29 10:15:59;;;;;;;;;8.00;8.00;;;;;;;;3559753;39;114027;-78
2021/06/29 10:18:30;;;;;;;;;9.67;9.67;;;;;;;;3554749;39;112507;-80
2021/06/29 10:20:59;;;;;;;;;9.67;8.67;;;;;;;;3553702;39;112247;-80
2021/06/29 10:23:26;;;;;;;;;17.00;12.67;;;;;;;;3553419;39;113729;-80
2021/06/29 10:25:53;;;;;;;;;11.67;10.00;;;;;;;;3554148;39;111856;-78
2021/06/29 10:28:20;;;;;;;;;30.67;27.00;;;;;;;;3557720;39;113130;-78
2021/06/29 10:30:47;;;;;;;;;64.25;50.50;;;;;;;;3558003;39;113942;-79
2021/06/29 10:33:15;;;;;;;;;37.67;31.00;;;;;;;;3559308;39;113188;-77
2021/06/29 10:35:43;;;;;;;;;17.33;14.33;;;;;;;;3557531;39;113415;-83
2021/06/29 10:38:10;;;;;;;;;15.00;14.67;;;;;;;;3553276;39;111769;-74
2021/06/29 10:40:37;;;;;;;;;13.00;13.00;;;;;;;;3553483;39;113245;-74
2021/06/29 10:43:04;;;;;;;;;12.00;9.00;;;;;;;;3552898;39;113963;-75
2021/06/29 10:45:35;;;;;;;;;14.00;12.00;;;;;;;;3552986;39;111813;-72
2021/06/29 10:48:23;;;;;;;;;12.00;12.00;;;;;;;;3556951;39;113238;-73
2021/06/29 10:50:53;;;;;;;;;11.33;9.00;;;;;;;;3553473;39;113848;-75
2021/06/29 10:53:36;;;;;;;;;14.33;14.33;;;;;;;;3558293;39;113300;-73
2021/06/29 10:56:03;;;;;;;;;11.00;11.00;;;;;;;;3556997;39;113267;-76
2021/06/29 10:58:37;;;;;;;;;7.00;7.00;;;;;;;;3560149;39;113965;-75
2021/06/29 11:01:20;;;;;;;;;14.33;14.00;;;;;;;;3557065;39;113572;-73
2021/06/29 11:03:47;;;;;;;;;11.67;10.33;;;;;;;;3556590;39;113865;-74
2021/06/29 11:06:30;;;;;;;;;11.00;11.00;;;;;;;;3557987;39;111885;-74
2021/06/29 11:08:59;;;;;;;;;7.00;7.00;;;;;;;;3554887;39;113676;-74
2021/06/29 11:11:26;;;;;;;;;10.00;10.00;;;;;;;;3554308;39;114196;-74
2021/06/29 11:13:53;;;;;;;;;13.67;13.67;;;;;;;;3555862;39;111896;-74
2021/06/29 11:16:40;;;;;;;;;11.67;11.67;;;;;;;;3558061;39;113276;-74
2021/06/29 11:19:06;;;;;;;;;11.00;10.00;;;;;;;;3556205;39;113197;-74
2021/06/29 11:21:36;;;;;;;;;13.00;12.67;;;;;;;;3562068;39;111889;-74
2021/06/29 11:24:17;;;;;;;;;12.67;12.67;;;;;;;;3557874;39;114179;-73
2021/06/29 11:26:44;;;;;;;;;5.33;5.00;;;;;;;;3558378;39;111768;-75
2021/06/29 11:29:10;;;;;;;;;14.00;12.67;;;;;;;;3556441;39;113286;-75
2021/06/29 11:31:37;;;;;;;;;12.00;11.00;;;;;;;;3559278;39;114107;-74
2021/06/29 11:34:06;;;;;;;;;13.00;12.00;;;;;;;;3554331;39;112216;-74
2021/06/29 11:36:50;;;;;;;;;12.00;12.00;;;;;;;;3554747;39;113283;-74
2021/06/29 11:39:35;;;;;;;;;13.00;12.00;;;;;;;;3553932;39;113840;-74
2021/06/29 11:42:12;;;;;;;;;13.67;13.00;;;;;;;;3556713;39;112038;-74
2021/06/29 11:44:43;;;;;;;;;8.00;8.00;;;;;;;;3552875;39;113911;-76
2021/06/29 11:47:13;;;;;;;;;10.00;10.00;;;;;;;;3554110;39;111994;-75
2021/06/29 22:11:04;;;;;;;;;8.50;7.25;;;;;;;;3547865;39;1392308;-78
2021/06/29 22:13:31;;;;;;;;;8.00;8.00;;;;;;;;3573307;39;113002;-78
2021/06/29 22:15:57;;;;;;;;;9.00;8.00;;;;;;;;3577347;39;111924;-80
2021/06/29 22:18:24;;;;;;;;;8.25;7.50;;;;;;;;3572467;39;112183;-82
2021/06/29 22:20:51;;;;;;;;;8.00;8.00;;;;;;;;3575258;39;113106;-81
2021/06/29 22:23:18;;;;;;;;;9.00;7.00;;;;;;;;3576528;39;111762;-81
2021/06/29 22:25:45;;;;;;;;;9.00;8.00;;;;;;;;3576964;39;113788;-81
2021/06/29 22:28:13;;;;;;;;;6.00;6.00;;;;;;;;3576870;39;113869;-85
2021/06/29 22:30:40;;;;;;;;;7.00;6.00;;;;;;;;3579353;39;111935;-83
2021/06/29 22:33:07;;;;;;;;;9.33;8.00;;;;;;;;3577044;39;114419;-83
2021/06/29 22:35:35;;;;;;;;;7.00;6.67;;;;;;;;3576811;39;112156;-84
2021/06/29 22:38:02;;;;;;;;;6.25;6.25;;;;;;;;3577701;39;113375;-82
2021/06/29 22:40:28;;;;;;;;;7.33;7.33;;;;;;;;3573005;39;112873;-83
2021/06/29 22:42:55;;;;;;;;;7.00;7.00;;;;;;;;3578019;39;111811;-82
2021/06/29 22:45:24;;;;;;;;;7.25;7.00;;;;;;;;3579175;39;113271;-82
2021/06/29 22:47:50;;;;;;;;;7.00;7.00;;;;;;;;3579963;39;113648;-82
2021/06/29 22:50:18;;;;;;;;;9.00;6.67;;;;;;;;3577442;39;112812;-81
2021/06/29 22:52:45;;;;;;;;;6.67;6.33;;;;;;;;3579011;39;113354;-81
2021/06/29 22:55:12;;;;;;;;;7.50;7.50;;;;;;;;3576379;39;112049;-82
2021/06/29 22:57:39;;;;;;;;;7.50;6.50;;;;;;;;3576916;39;113569;-80
2021/06/29 23:00:06;;;;;;;;;8.00;6.00;;;;;;;;3576771;39;114026;-81
2021/06/29 23:02:34;;;;;;;;;6.67;6.00;;;;;;;;3576618;39;112447;-81
2021/06/29 23:05:01;;;;;;;;;8.00;7.00;;;;;;;;3577659;39;113600;-81
2021/06/29 23:07:28;;;;;;;;;8.25;7.75;;;;;;;;3575737;39;113982;-81
2021/06/29 23:09:54;;;;;;;;;7.00;7.00;;;;;;;;3576043;39;111829;-78
2021/06/29 23:12:21;;;;;;;;;9.00;7.00;;;;;;;;3577583;39;113316;-81
2021/06/29 23:14:47;;;;;;;;;8.00;8.00;;;;;;;;3580479;39;114255;-83
2021/06/29 23:17:14;;;;;;;;;9.00;8.00;;;;;;;;3577205;39;113366;-82
2021/06/29 23:19:42;;;;;;;;;4.67;4.67;;;;;;;;3576718;39;115802;-83
2021/06/29 23:22:08;;;;;;;;;9.00;7.25;;;;;;;;3572198;39;112070;-83
2021/06/29 23:24:35;;;;;;;;;5.75;5.75;;;;;;;;3570954;39;113521;-82
2021/06/29 23:27:01;;;;;;;;;6.00;6.00;;;;;;;;3569341;39;113859;-81
2021/06/29 23:29:28;;;;;;;;;6.25;5.50;;;;;;;;3572977;39;112780;-83
2021/06/29 23:31:55;;;;;;;;;6.00;6.00;;;;;;;;3569378;39;113761;-83
2021/06/29 23:34:23;;;;;;;;;7.00;6.00;;;;;;;;3570446;39;113794;-84
2021/06/29 23:36:51;;;;;;;;;8.00;6.00;;;;;;;;3566956;39;112151;-83
2021/06/29 23:39:18;;;;;;;;;4.75;4.75;;;;;;;;3567827;39;112926;-84
2021/06/29 23:41:44;;;;;;;;;6.25;6.25;;;;;;;;3569624;39;111774;-83
2021/06/29 23:44:11;;;;;;;;;8.00;6.75;;;;;;;;3570132;39;113342;-84
2021/06/29 23:46:38;;;;;;;;;6.00;6.00;;;;;;;;3566662;39;113112;-84
2021/06/29 23:49:04;;;;;;;;;6.50;6.50;;;;;;;;3570373;39;111895;-83
2021/06/29 23:51:31;;;;;;;;;5.00;5.00;;;;;;;;3569136;39;114014;-83
2021/06/29 23:53:59;;;;;;;;;6.75;6.75;;;;;;;;3570318;39;113976;-82
2021/06/29 23:56:26;;;;;;;;;5.25;4.75;;;;;;;;3568892;39;111736;-82
2021/06/29 23:58:52;;;;;;;;;3.25;1.25;;;;;;;;3573237;39;113443;-83
